Time;durP1;ratioP1;P1;durP2;ratioP2;P2;SDS_P1;SDS_P2;PMS_P1;PMS_P2;Temp;Humidity;BMP_temperature;BMP_pressure;BME280_temperature;BME280_humidity;BME280_pressure;Samples;Min_cycle;Max_cycle;Signal;HPM_P1;HPM_P2
2023/06/02 00:02:16;;;;;;;22.83;8.27;;;;;;;10.09;100.00;101948.97;5012628;28;20298;-75
2023/06/02 00:04:42;;;;;;;20.57;7.13;;;;;;;10.09;100.00;101941.31;5012754;28;20283;-73
2023/06/02 00:07:08;;;;;;;22.40;6.93;;;;;;;10.05;100.00;101945.41;5012704;28;20194;-72
2023/06/02 00:09:38;;;;;;;27.87;6.83;;;;;;;10.06;100.00;101943.72;5014484;28;20183;-72
2023/06/02 00:12:04;;;;;;;22.93;6.10;;;;;;;9.93;100.00;101950.03;5012701;28;20583;-73
2023/06/02 00:14:30;;;;;;;21.83;6.33;;;;;;;10.02;100.00;101949.50;5017224;28;20193;-73
2023/06/02 00:17:00;;;;;;;23.10;6.73;;;;;;;10.04;100.00;101950.47;4995630;28;20225;-73
2023/06/02 00:19:30;;;;;;;22.07;6.67;;;;;;;10.09;100.00;101942.16;5004994;28;20179;-73
2023/06/02 00:22:03;;;;;;;26.53;7.10;;;;;;;10.09;100.00;101939.59;4994916;28;20207;-73
2023/06/02 00:24:29;;;;;;;20.67;6.43;;;;;;;10.14;100.00;101944.91;5012516;28;20595;-73
2023/06/02 00:26:55;;;;;;;17.77;6.07;;;;;;;10.15;100.00;101942.41;4994911;28;20241;-72
2023/06/02 00:29:20;;;;;;;23.67;6.10;;;;;;;10.17;100.00;101938.22;5012302;28;20626;-73
2023/06/02 00:31:46;;;;;;;32.27;7.33;;;;;;;10.18;100.00;101939.94;5012321;28;20211;-73
2023/06/02 00:34:11;;;;;;;17.53;6.10;;;;;;;10.19;100.00;101933.16;5014938;28;20588;-73
2023/06/02 00:36:37;;;;;;;25.53;6.40;;;;;;;10.22;100.00;101938.38;4981482;28;20683;-73
2023/06/02 00:39:03;;;;;;;23.40;6.20;;;;;;;10.24;100.00;101934.22;5012297;28;20486;-72
2023/06/02 00:41:29;;;;;;;23.17;6.20;;;;;;;10.28;100.00;101933.50;5016297;28;20214;-73
2023/06/02 00:43:55;;;;;;;31.00;6.80;;;;;;;10.27;100.00;101927.50;5008385;28;20191;-73
2023/06/02 00:46:21;;;;;;;24.03;6.43;;;;;;;10.29;100.00;101935.25;5014414;28;20269;-72
2023/06/02 00:48:48;;;;;;;19.80;5.90;;;;;;;10.31;100.00;101929.38;4987060;28;20285;-74
2023/06/02 00:51:15;;;;;;;24.30;6.00;;;;;;;10.33;100.00;101930.28;5002317;28;20302;-73
2023/06/02 00:53:40;;;;;;;19.10;5.77;;;;;;;10.36;100.00;101934.66;5011482;28;20206;-73
2023/06/02 00:56:06;;;;;;;19.93;5.53;;;;;;;10.36;100.00;101943.22;5011002;28;20207;-73
2023/06/02 00:58:37;;;;;;;30.67;6.57;;;;;;;10.35;100.00;101935.47;5010348;28;20256;-73
2023/06/02 01:01:08;;;;;;;17.77;5.60;;;;;;;10.34;100.00;101936.28;4991302;28;20630;-72
2023/06/02 01:03:34;;;;;;;17.77;5.63;;;;;;;10.33;100.00;101937.13;5001163;28;20218;-73
2023/06/02 01:06:02;;;;;;;25.40;6.60;;;;;;;10.34;100.00;101933.72;4977994;28;20199;-72
2023/06/02 01:08:30;;;;;;;32.77;7.33;;;;;;;10.32;100.00;101931.09;5002045;28;20195;-73
2023/06/02 01:10:57;;;;;;;21.93;6.33;;;;;;;10.31;100.00;101942.16;5011793;28;20301;-73
2023/06/02 01:13:23;;;;;;;25.90;6.30;;;;;;;10.28;100.00;101942.03;4993886;28;20563;-73
2023/06/02 01:15:49;;;;;;;21.53;6.30;;;;;;;10.29;100.00;101950.59;5011183;28;20210;-73
2023/06/02 01:18:16;;;;;;;24.37;6.30;;;;;;;10.25;100.00;101949.63;4993616;28;20280;-72
2023/06/02 01:20:48;;;;;;;26.80;6.17;;;;;;;10.21;100.00;101942.63;5005523;28;20214;-72
2023/06/02 01:23:29;;;;;;;17.40;5.73;;;;;;;10.24;100.00;101949.56;4994135;28;20221;-72
2023/06/02 01:25:55;;;;;;;22.20;6.43;;;;;;;10.25;100.00;101947.06;4991506;28;20191;-75
2023/06/02 01:28:21;;;;;;;27.27;6.17;;;;;;;10.22;100.00;101935.81;5011403;28;20688;-73
2023/06/02 01:30:55;;;;;;;21.20;5.93;;;;;;;10.19;100.00;101940.84;5011162;28;20211;-73
2023/06/02 01:33:34;;;;;;;25.97;6.43;;;;;;;10.18;100.00;101939.94;5010646;28;20249;-74
2023/06/02 01:36:00;;;;;;;24.37;7.60;;;;;;;10.19;100.00;101938.28;4977527;28;20187;-73
2023/06/02 01:38:28;;;;;;;20.47;6.77;;;;;;;10.13;100.00;101950.84;4993505;28;20194;-73
2023/06/02 01:40:57;;;;;;;23.13;5.87;;;;;;;10.10;100.00;101951.56;5010951;28;20288;-74
2023/06/02 01:43:23;;;;;;;25.83;7.33;;;;;;;10.14;100.00;101955.16;5011073;28;20191;-72
2023/06/02 01:45:48;;;;;;;26.50;7.10;;;;;;;10.10;100.00;101946.44;5019141;28;20197;-73
2023/06/02 01:48:14;;;;;;;22.03;6.40;;;;;;;10.11;100.00;101945.66;5010839;28;20278;-73
2023/06/02 01:50:40;;;;;;;22.67;6.13;;;;;;;10.04;100.00;101953.91;4993148;28;20277;-73
2023/06/02 01:53:06;;;;;;;23.83;6.67;;;;;;;10.01;100.00;101943.53;4976002;28;20195;-74
2023/06/02 01:55:33;;;;;;;28.97;6.43;;;;;;;9.99;100.00;101957.06;4999990;28;20194;-74
2023/06/02 01:57:59;;;;;;;26.07;5.90;;;;;;;9.93;100.00;101952.59;4993501;28;20207;-72
2023/06/02 02:00:26;;;;;;;19.63;5.80;;;;;;;9.97;100.00;101945.91;4993075;28;20265;-73
2023/06/02 02:02:52;;;;;;;22.93;6.30;;;;;;;9.95;100.00;101952.66;5010785;28;20195;-73
2023/06/02 02:05:18;;;;;;;20.80;6.57;;;;;;;9.97;100.00;101940.78;5009713;28;20195;-73
2023/06/02 02:07:45;;;;;;;24.70;6.60;;;;;;;9.89;100.00;101945.59;5010929;28;20645;-73
2023/06/02 02:10:11;;;;;;;27.60;7.00;;;;;;;9.85;100.00;101945.41;5010640;28;20214;-74
2023/06/02 02:12:40;;;;;;;21.43;6.80;;;;;;;9.87;100.00;101941.22;5011007;28;20221;-73
2023/06/02 02:15:07;;;;;;;23.43;7.10;;;;;;;9.90;100.00;101949.03;4994502;28;20199;-73
2023/06/02 02:17:33;;;;;;;24.47;6.53;;;;;;;9.85;100.00;101942.84;4983192;28;20241;-72
2023/06/02 02:19:59;;;;;;;26.53;6.80;;;;;;;9.84;100.00;101947.09;5010752;28;20277;-74
2023/06/02 02:22:25;;;;;;;25.43;6.90;;;;;;;9.84;100.00;101949.66;4993038;28;20211;-72
2023/06/02 02:24:50;;;;;;;31.83;7.00;;;;;;;9.79;100.00;101947.72;4993242;28;20194;-73
2023/06/02 02:27:16;;;;;;;22.93;6.80;;;;;;;9.76;100.00;101945.91;5010896;28;20238;-73
2023/06/02 02:29:43;;;;;;;24.10;6.77;;;;;;;9.73;100.00;101944.94;5005706;28;20249;-72
2023/06/02 02:32:09;;;;;;;24.30;7.40;;;;;;;9.73;100.00;101939.81;5010549;28;20222;-72
2023/06/02 02:34:34;;;;;;;25.67;7.40;;;;;;;9.73;100.00;101939.81;4995110;28;20182;-73
2023/06/02 02:37:01;;;;;;;27.40;6.80;;;;;;;9.70;100.00;101944.78;4994381;28;20226;-73
2023/06/02 02:39:29;;;;;;;26.93;7.77;;;;;;;9.71;100.00;101942.31;5000583;28;20528;-73
2023/06/02 02:41:55;;;;;;;27.57;8.40;;;;;;;9.69;100.00;101948.16;4997319;28;20207;-73
2023/06/02 02:44:22;;;;;;;22.37;8.23;;;;;;;9.73;100.00;101953.44;4992363;28;20682;-73
2023/06/02 02:46:48;;;;;;;30.20;9.40;;;;;;;9.80;100.00;101958.03;4998099;28;20222;-74
2023/06/02 02:49:14;;;;;;;23.13;10.60;;;;;;;9.79;100.00;101952.84;4993555;28;20554;-74
2023/06/02 02:51:39;;;;;;;28.43;8.97;;;;;;;9.82;100.00;101952.97;4991904;28;20476;-73
2023/06/02 02:54:05;;;;;;;29.37;8.93;;;;;;;9.83;100.00;101958.16;4992236;28;20199;-73
2023/06/02 02:56:32;;;;;;;24.27;8.80;;;;;;;9.83;100.00;101958.16;4998419;28;20218;-73
2023/06/02 02:59:00;;;;;;;30.73;8.30;;;;;;;9.80;100.00;101958.03;4991947;28;20191;-73
2023/06/02 03:01:26;;;;;;;28.60;7.87;;;;;;;9.82;100.00;101963.19;5009350;28;20214;-72
2023/06/02 03:03:53;;;;;;;24.57;8.53;;;;;;;9.76;100.00;101968.94;4975533;28;20568;-73
2023/06/02 03:06:21;;;;;;;24.23;7.77;;;;;;;9.71;100.00;101970.44;4975447;28;20184;-73
2023/06/02 03:08:47;;;;;;;33.07;9.00;;;;;;;9.73;100.00;101966.25;4988413;28;20217;-72
2023/06/02 03:11:13;;;;;;;30.80;7.97;;;;;;;9.73;100.00;101973.06;4991413;28;20841;-73
2023/06/02 03:13:39;;;;;;;22.33;7.60;;;;;;;9.72;100.00;101968.75;4996910;28;20183;-73
2023/06/02 03:16:05;;;;;;;27.90;8.57;;;;;;;9.72;100.00;101967.06;4998060;28;20194;-73
2023/06/02 03:18:32;;;;;;;32.00;8.87;;;;;;;9.77;100.00;101969.81;4991980;28;20245;-75
2023/06/02 03:20:58;;;;;;;19.60;8.10;;;;;;;9.78;100.00;101969.00;4994793;28;20215;-74
2023/06/02 03:23:28;;;;;;;27.30;7.70;;;;;;;9.74;100.00;101962.00;5000745;28;20667;-74
2023/06/02 03:25:54;;;;;;;26.27;8.17;;;;;;;9.75;100.00;101963.75;5005087;28;20190;-73
2023/06/02 03:28:20;;;;;;;23.70;7.87;;;;;;;9.76;100.00;101966.38;4992638;28;20195;-74
2023/06/02 03:30:46;;;;;;;28.10;7.80;;;;;;;9.80;100.00;101975.03;4981109;28;20222;-74
2023/06/02 03:33:12;;;;;;;25.00;8.33;;;;;;;9.79;100.00;101980.97;4986384;28;20201;-74
2023/06/02 03:35:38;;;;;;;21.23;7.17;;;;;;;9.82;100.00;101981.97;4991508;28;20206;-75
2023/06/02 03:38:05;;;;;;;26.03;7.43;;;;;;;9.84;100.00;101982.03;4979416;28;20211;-75
2023/06/02 03:40:33;;;;;;;24.33;8.60;;;;;;;9.83;100.00;101981.19;4991614;28;20564;-74
2023/06/02 03:42:58;;;;;;;29.70;8.27;;;;;;;9.85;100.00;101986.31;5009267;28;20194;-73
2023/06/02 03:45:24;;;;;;;28.50;6.53;;;;;;;9.88;100.00;101987.34;4997373;28;20289;-74
2023/06/02 03:47:50;;;;;;;25.53;7.07;;;;;;;9.89;100.00;101978.84;4975456;28;20179;-73
2023/06/02 03:50:19;;;;;;;31.33;6.93;;;;;;;9.92;100.00;101989.22;4995870;28;20186;-73
2023/06/02 03:52:44;;;;;;;24.03;7.10;;;;;;;9.97;100.00;101985.16;4983888;28;20661;-73
2023/06/02 03:55:10;;;;;;;29.97;6.73;;;;;;;9.99;100.00;101985.19;4979421;28;20190;-73
2023/06/02 03:57:37;;;;;;;26.10;7.97;;;;;;;10.03;100.00;101989.63;4983530;28;20222;-73
2023/06/02 04:00:04;;;;;;;25.43;7.20;;;;;;;10.06;100.00;101987.22;5001638;28;20199;-74
2023/06/02 04:02:39;;;;;;;35.73;7.60;;;;;;;10.10;100.00;101989.09;5009465;28;20190;-74
2023/06/02 04:05:07;;;;;;;29.27;8.17;;;;;;;10.12;100.00;101990.91;4994728;28;20195;-74
2023/06/02 04:07:33;;;;;;;23.53;7.07;;;;;;;10.16;100.00;101989.34;4998966;28;20187;-74
2023/06/02 04:09:58;;;;;;;30.03;7.57;;;;;;;10.21;100.00;102000.63;4983562;28;20203;-74
2023/06/02 04:12:24;;;;;;;30.57;7.63;;;;;;;10.25;100.00;101999.94;5008570;28;20238;-74
2023/06/02 04:14:49;;;;;;;25.20;7.63;;;;;;;10.28;100.00;101995.81;4991324;28;20679;-73
2023/06/02 04:17:15;;;;;;;28.10;8.20;;;;;;;10.33;100.00;101998.56;4990786;28;20207;-75
2023/06/02 04:19:40;;;;;;;23.23;6.93;;;;;;;10.37;100.00;102005.53;4990991;28;20227;-73
2023/06/02 04:22:06;;;;;;;23.30;7.70;;;;;;;10.41;100.00;101998.03;4995444;28;20230;-74
2023/06/02 04:24:32;;;;;;;30.23;8.13;;;;;;;10.46;100.00;102001.63;4974892;28;20302;-73
2023/06/02 04:26:58;;;;;;;24.07;6.93;;;;;;;10.53;100.00;102005.31;4991135;28;20732;-72
2023/06/02 04:29:24;;;;;;;23.60;7.80;;;;;;;10.59;100.00;102010.66;5012566;28;20198;-73
2023/06/02 04:31:50;;;;;;;27.67;7.47;;;;;;;10.60;100.00;102010.72;5002095;28;20700;-72
2023/06/02 04:34:21;;;;;;;27.70;8.17;;;;;;;10.68;100.00;102001.63;5004909;28;20245;-72
2023/06/02 04:36:47;;;;;;;29.80;7.87;;;;;;;10.76;100.00;102007.94;4994653;28;20207;-73
2023/06/02 04:39:13;;;;;;;21.00;6.97;;;;;;;10.84;100.00;102006.53;4994842;28;20869;-75
2023/06/02 04:41:39;;;;;;;20.90;6.70;;;;;;;10.93;100.00;102005.97;5012136;28;20215;-72
2023/06/02 04:44:06;;;;;;;23.13;7.27;;;;;;;10.97;100.00;101998.44;5002262;28;20225;-72
2023/06/02 04:46:32;;;;;;;22.07;6.27;;;;;;;11.02;100.00;102009.72;5001244;28;20230;-73
2023/06/02 04:48:58;;;;;;;27.17;6.33;;;;;;;11.12;100.00;102009.28;5007005;28;20198;-76
2023/06/02 04:51:27;;;;;;;22.50;7.50;;;;;;;11.19;100.00;102000.06;5026594;28;20211;-73
2023/06/02 04:53:54;;;;;;;27.40;7.37;;;;;;;11.25;100.00;102001.16;4977140;28;20247;-73
2023/06/02 04:56:20;;;;;;;21.00;5.90;;;;;;;11.27;100.00;102001.22;5015845;28;20772;-73
2023/06/02 04:58:46;;;;;;;27.17;6.67;;;;;;;11.31;100.00;102003.97;4985217;28;20191;-73
2023/06/02 05:01:11;;;;;;;21.30;6.07;;;;;;;11.44;100.00;102006.16;4994888;28;20207;-73
2023/06/02 05:03:37;;;;;;;22.43;5.87;;;;;;;11.54;100.00;102008.19;5001715;28;20268;-74
2023/06/02 05:06:03;;;;;;;25.57;6.50;;;;;;;11.65;100.00;102009.44;4993917;28;20195;-73
2023/06/02 05:08:29;;;;;;;20.33;5.53;;;;;;;11.81;100.00;102006.59;5005546;28;20195;-72
2023/06/02 05:10:55;;;;;;;31.03;7.10;;;;;;;11.96;100.00;102017.34;4999275;28;20211;-73
2023/06/02 05:13:21;;;;;;;22.53;6.17;;;;;;;12.07;100.00;102018.56;4998986;28;20707;-74
2023/06/02 05:15:48;;;;;;;18.53;5.83;;;;;;;12.19;100.00;102018.97;5027567;28;20183;-74
2023/06/02 05:18:14;;;;;;;20.87;5.23;;;;;;;12.30;100.00;102020.16;4996530;28;20223;-75
2023/06/02 05:20:41;;;;;;;23.33;5.17;;;;;;;12.41;100.00;102026.50;5021118;28;20288;-71
2023/06/02 05:23:07;;;;;;;16.63;5.03;;;;;;;12.47;100.00;102025.81;5001108;28;20187;-73
2023/06/02 05:25:34;;;;;;;18.67;5.07;;;;;;;12.57;100.00;102031.28;5000975;28;20234;-73
2023/06/02 05:28:00;;;;;;;19.87;4.97;;;;;;;12.69;100.00;102034.22;5002008;28;20211;-73
2023/06/02 05:30:26;;;;;;;13.20;4.87;;;;;;;12.80;100.00;102031.94;4978002;28;20234;-75
2023/06/02 05:32:52;;;;;;;17.57;4.83;;;;;;;12.88;100.00;102031.38;4977809;28;20294;-73
2023/06/02 05:35:18;;;;;;;21.33;4.90;;;;;;;12.76;100.00;102036.13;5001632;28;20198;-73
2023/06/02 05:37:44;;;;;;;17.53;4.30;;;;;;;12.71;100.00;102042.84;5011026;28;20215;-73
2023/06/02 05:40:10;;;;;;;23.57;4.80;;;;;;;12.79;100.00;102046.53;4981614;28;20203;-74
2023/06/02 05:42:36;;;;;;;16.67;4.73;;;;;;;12.89;100.00;102045.97;5016855;28;20195;-74
2023/06/02 05:45:05;;;;;;;15.97;5.17;;;;;;;13.07;100.00;102042.22;5001236;28;20574;-73
2023/06/02 05:47:32;;;;;;;17.87;3.90;;;;;;;13.06;100.00;102035.31;5002425;28;20191;-74
2023/06/02 05:49:58;;;;;;;16.47;3.90;;;;;;;13.19;100.00;102039.97;5001278;28;20198;-73
2023/06/02 05:52:24;;;;;;;15.60;3.80;;;;;;;13.33;100.00;102036.06;5003445;28;20278;-73
2023/06/02 05:54:50;;;;;;;12.97;4.00;;;;;;;13.33;100.00;102043.81;5005815;28;20601;-73
2023/06/02 05:57:19;;;;;;;12.40;4.63;;;;;;;13.31;100.00;102048.03;5001522;28;20214;-74
2023/06/02 05:59:46;;;;;;;14.67;4.37;;;;;;;13.34;100.00;102056.72;4993093;28;20191;-73
2023/06/02 06:02:12;;;;;;;18.20;4.93;;;;;;;13.48;100.00;102054.53;5000844;28;20865;-73
2023/06/02 06:04:39;;;;;;;14.50;4.87;;;;;;;13.53;100.00;102058.94;4992791;28;20333;-74
2023/06/02 06:07:05;;;;;;;11.57;3.80;;;;;;;13.64;100.00;102060.13;5003326;28;20269;-73
2023/06/02 06:09:31;;;;;;;16.93;4.50;;;;;;;13.71;100.00;102056.00;4993859;28;20202;-73
2023/06/02 06:11:57;;;;;;;16.87;5.07;;;;;;;13.74;100.00;102058.66;4998491;28;20811;-73
2023/06/02 06:14:23;;;;;;;17.27;4.97;;;;;;;13.82;100.00;102060.59;4994272;28;20281;-73
2023/06/02 06:16:48;;;;;;;14.43;4.93;;;;;;;13.87;100.00;102059.03;5007729;28;20518;-73
2023/06/02 06:19:14;;;;;;;11.80;5.13;;;;;;;13.94;100.00;102066.06;4989038;28;20199;-73
2023/06/02 06:21:41;;;;;;;20.07;5.60;;;;;;;14.02;100.00;102072.28;5000741;28;20207;-73
2023/06/02 06:24:07;;;;;;;14.53;5.27;;;;;;;14.23;100.00;102065.09;4992797;28;20202;-73
2023/06/02 06:26:33;;;;;;;13.53;4.80;;;;;;;14.33;100.00;102064.50;4992721;28;20187;-73
2023/06/02 06:28:59;;;;;;;14.37;5.23;;;;;;;14.35;100.00;102067.97;5000543;28;20798;-73
2023/06/02 06:31:25;;;;;;;22.10;5.33;;;;;;;14.37;100.00;102068.00;4990128;28;20586;-73
2023/06/02 06:33:52;;;;;;;16.87;5.50;;;;;;;14.44;100.00;102073.34;4999172;28;20599;-75
2023/06/02 06:36:17;;;;;;;17.57;5.50;;;;;;;14.46;100.00;102073.38;5000048;28;20191;-75
2023/06/02 06:38:43;;;;;;;18.63;5.63;;;;;;;14.50;100.00;102072.63;5010059;28;20221;-73
2023/06/02 06:41:08;;;;;;;16.43;5.13;;;;;;;14.52;100.00;102076.09;5008179;28;20596;-75
2023/06/02 06:43:35;;;;;;;14.17;5.30;;;;;;;14.63;100.00;102082.34;5001449;28;20207;-74
2023/06/02 06:46:08;;;;;;;17.97;5.77;;;;;;;14.62;100.00;102078.94;5000433;28;20198;-76
2023/06/02 06:48:33;;;;;;;17.47;5.93;;;;;;;14.53;100.00;102085.56;5009756;28;20187;-73
2023/06/02 06:50:59;;;;;;;16.23;5.83;;;;;;;14.60;100.00;102077.16;5010396;28;20207;-73
2023/06/02 06:53:26;;;;;;;13.43;6.23;;;;;;;14.58;100.00;102091.69;5010206;28;20198;-75
2023/06/02 06:55:52;;;;;;;16.33;5.60;;;;;;;14.47;100.00;102091.47;5008129;28;20202;-73
2023/06/02 06:58:18;;;;;;;13.60;5.87;;;;;;;14.46;100.00;102096.59;5009353;28;20708;-72
2023/06/02 07:00:43;;;;;;;17.40;6.40;;;;;;;14.52;100.00;102096.72;5005689;28;20242;-74
2023/06/02 07:03:09;;;;;;;16.60;6.23;;;;;;;14.49;100.00;102105.25;5009063;28;20186;-73
2023/06/02 07:05:35;;;;;;;13.73;5.80;;;;;;;14.50;100.00;102101.84;5009241;28;20199;-73
2023/06/02 07:08:01;;;;;;;13.93;6.20;;;;;;;14.40;100.00;102109.28;5004049;28;20199;-73
2023/06/02 07:10:26;;;;;;;17.73;6.40;;;;;;;14.44;100.00;102114.59;5008610;28;20238;-71
2023/06/02 07:12:52;;;;;;;14.70;5.50;;;;;;;14.62;100.00;102116.72;5009143;28;20199;-73
2023/06/02 07:15:17;;;;;;;12.53;5.53;;;;;;;14.70;100.00;102120.34;4995349;28;20198;-74
2023/06/02 07:17:43;;;;;;;13.80;6.33;;;;;;;14.76;100.00;102123.06;5005900;28;20242;-72
2023/06/02 07:20:10;;;;;;;12.80;5.03;;;;;;;14.81;100.00;102121.44;5004839;28;20187;-74
2023/06/02 07:22:36;;;;;;;11.90;5.83;;;;;;;14.76;100.00;102129.09;4997231;28;20230;-72
2023/06/02 07:25:03;;;;;;;12.20;5.47;;;;;;;14.83;100.00;102128.38;5009519;28;20198;-73
2023/06/02 07:27:29;;;;;;;13.43;6.20;;;;;;;14.88;100.00;102131.94;5009134;28;20194;-72
2023/06/02 07:29:55;;;;;;;11.43;5.43;;;;;;;14.74;100.00;102141.06;5009099;28;20203;-73
2023/06/02 07:32:20;;;;;;;10.73;5.23;;;;;;;14.79;100.00;102138.63;5008417;28;20218;-73
2023/06/02 07:34:47;;;;;;;13.20;5.83;;;;;;;14.96;100.00;102139.88;5008951;28;20198;-73
2023/06/02 07:37:13;;;;;;;15.30;5.37;;;;;;;15.16;100.00;102142.06;5007484;28;20585;-73
2023/06/02 07:39:38;;;;;;;12.37;4.93;;;;;;;15.46;100.00;102136.66;4982529;28;20194;-72
2023/06/02 07:42:04;;;;;;;9.63;4.77;;;;;;;15.69;100.00;102136.31;4995545;28;20219;-73
2023/06/02 07:44:29;;;;;;;13.97;5.77;;;;;;;15.76;100.00;102142.47;5004054;28;20191;-72
2023/06/02 07:46:55;;;;;;;15.07;5.90;;;;;;;15.72;100.00;102143.22;5000391;28;20722;-72
2023/06/02 07:49:20;;;;;;;13.37;5.40;;;;;;;15.75;100.00;102138.13;5005850;28;20241;-72
2023/06/02 07:51:45;;;;;;;10.73;5.33;;;;;;;15.78;100.00;102138.19;5002940;28;20301;-72
2023/06/02 07:54:11;;;;;;;12.17;5.20;;;;;;;15.79;100.00;102142.53;5002507;28;20281;-73
2023/06/02 07:56:37;;;;;;;11.43;5.20;;;;;;;15.92;100.00;102147.94;5003174;28;20211;-72
2023/06/02 07:59:02;;;;;;;16.97;5.97;;;;;;;15.96;100.00;102156.63;5000074;28;20195;-73
2023/06/02 08:01:28;;;;;;;9.30;4.90;;;;;;;16.05;100.00;102144.75;4997682;28;20211;-73
2023/06/02 08:03:53;;;;;;;13.97;4.63;;;;;;;16.16;100.00;102140.63;5009570;28;20839;-73
2023/06/02 08:06:19;;;;;;;11.83;4.87;;;;;;;16.26;100.00;102147.69;5004635;28;20203;-72
2023/06/02 08:08:45;;;;;;;22.20;5.57;;;;;;;16.24;100.00;102148.50;5008233;28;20274;-72
2023/06/02 08:11:11;;;;;;;9.93;4.67;;;;;;;16.20;100.00;102146.72;4993960;28;20215;-73
2023/06/02 08:13:37;;;;;;;12.97;5.67;;;;;;;16.18;100.00;102144.13;4998236;28;21138;-72
2023/06/02 08:16:02;;;;;;;10.47;4.60;;;;;;;16.08;100.00;102157.72;5012114;28;20187;-72
2023/06/02 08:18:28;;;;;;;15.03;5.10;;;;;;;16.03;100.00;102161.06;5010920;28;20710;-72
2023/06/02 08:20:53;;;;;;;15.33;4.70;;;;;;;16.05;100.00;102159.38;5007747;28;20638;-72
2023/06/02 08:23:19;;;;;;;11.50;4.87;;;;;;;15.72;100.00;102164.78;5009930;28;20198;-74
2023/06/02 08:25:45;;;;;;;12.17;5.53;;;;;;;15.78;100.00;102164.00;5011703;28;20218;-73
2023/06/02 08:28:11;;;;;;;12.13;5.10;;;;;;;15.92;100.00;102168.59;5003492;28;20330;-74
2023/06/02 08:30:37;;;;;;;12.40;4.57;;;;;;;16.07;100.00;102163.72;5001990;28;21774;-74
2023/06/02 08:33:05;;;;;;;13.97;5.20;;;;;;;16.22;100.00;102170.88;4995052;28;20222;-74
2023/06/02 08:35:32;;;;;;;10.33;4.93;;;;;;;16.28;100.00;102171.00;5008194;28;20613;-74
2023/06/02 08:38:01;;;;;;;13.07;4.50;;;;;;;16.20;100.00;102177.72;5009659;28;20720;-73
2023/06/02 08:40:34;;;;;;;13.37;4.80;;;;;;;16.13;100.00;102171.59;5004592;28;20226;-73
2023/06/02 08:43:00;;;;;;;9.33;4.07;;;;;;;16.05;100.00;102173.16;4996846;28;20187;-75
2023/06/02 08:45:25;;;;;;;11.63;4.13;;;;;;;16.12;100.00;102187.94;4997244;28;20191;-73
2023/06/02 08:47:56;;;;;;;12.20;4.33;;;;;;;15.83;100.00;102185.63;4995260;28;20191;-75
2023/06/02 08:50:25;;;;;;;7.10;3.83;;;;;;;15.78;100.00;102200.16;5006347;28;20218;-74
2023/06/02 08:52:52;;;;;;;9.73;4.77;;;;;;;15.61;100.00;102202.41;5003391;28;20209;-73
2023/06/02 08:55:18;;;;;;;10.03;4.00;;;;;;;15.48;100.00;102203.00;5009197;28;20598;-72
2023/06/02 08:57:43;;;;;;;12.17;4.60;;;;;;;15.55;100.00;102204.88;5008076;28;20207;-73
2023/06/02 09:00:10;;;;;;;11.50;4.07;;;;;;;15.57;100.00;102199.75;5005070;28;20203;-73
2023/06/02 09:02:35;;;;;;;9.87;4.40;;;;;;;15.54;100.00;102202.25;5006239;28;20241;-73
2023/06/02 09:05:02;;;;;;;8.63;4.43;;;;;;;15.63;100.00;102202.44;4993610;28;20195;-76
2023/06/02 09:07:28;;;;;;;9.20;4.47;;;;;;;15.60;100.00;102200.69;5010929;28;20291;-72
2023/06/02 09:09:55;;;;;;;9.03;4.40;;;;;;;15.57;100.00;102204.91;5004554;28;20250;-72
2023/06/02 09:12:21;;;;;;;12.77;4.87;;;;;;;15.40;100.00;102209.72;5008623;28;20221;-73
2023/06/02 09:15:05;;;;;;;13.03;4.47;;;;;;;15.53;100.00;102218.59;5014860;28;20278;-72
2023/06/02 09:17:31;;;;;;;6.17;3.93;;;;;;;15.64;100.00;102209.34;4991472;28;20237;-72
2023/06/02 09:19:58;;;;;;;14.07;4.87;;;;;;;15.88;100.00;102215.03;5010151;28;20575;-73
2023/06/02 09:22:25;;;;;;;11.87;4.43;;;;;;;15.95;100.00;102209.13;5008040;28;20222;-72
2023/06/02 09:24:53;;;;;;;8.57;3.97;;;;;;;16.03;100.00;102213.59;4976642;28;20290;-72
2023/06/02 09:27:19;;;;;;;9.03;4.17;;;;;;;16.10;100.00;102206.84;5005434;28;20205;-76
2023/06/02 09:29:46;;;;;;;8.87;3.70;;;;;;;16.06;100.00;102205.91;4993024;28;20195;-74
2023/06/02 09:32:16;;;;;;;9.27;4.00;;;;;;;16.11;100.00;102208.59;5002554;28;20305;-73
2023/06/02 09:34:45;;;;;;;8.50;3.57;;;;;;;16.26;100.00;102206.28;5008867;28;20190;-74
2023/06/02 09:37:15;;;;;;;11.90;4.27;;;;;;;16.46;100.00;102215.28;4991684;28;20236;-74
2023/06/02 09:39:43;;;;;;;9.73;3.43;;;;;;;16.39;100.00;102188.44;5024185;28;20730;-72
2023/06/02 09:42:13;;;;;;;7.80;3.57;;;;;;;16.42;100.00;102195.41;5004813;28;20215;-75
2023/06/02 09:44:39;;;;;;;11.97;4.30;;;;;;;16.58;100.00;102231.03;5003045;28;20302;-73
2023/06/02 09:47:25;;;;;;;11.27;3.63;;;;;;;16.80;100.00;102190.00;5005080;28;20209;-74
2023/06/02 09:49:50;;;;;;;10.87;3.67;;;;;;;16.83;100.00;102189.19;5009013;28;20706;-73
2023/06/02 09:52:17;;;;;;;9.43;3.70;;;;;;;16.62;100.00;102184.53;5010045;28;20206;-74
2023/06/02 09:54:44;;;;;;;8.37;3.60;;;;;;;16.69;100.00;102190.69;5003259;28;20293;-73
2023/06/02 09:57:12;;;;;;;7.40;3.53;;;;;;;16.84;100.00;102160.75;5025324;28;20206;-73
2023/06/02 09:59:41;;;;;;;9.90;3.27;;;;;;;17.22;100.00;102179.44;5008604;28;20195;-74
2023/06/02 10:02:10;;;;;;;7.10;3.30;;;;;;;17.82;100.00;102137.03;5006232;28;20594;-75
2023/06/02 10:04:36;;;;;;;6.57;2.80;;;;;;;17.88;100.00;102106.03;5009091;28;20306;-74
2023/06/02 10:07:26;;;;;;;6.43;3.00;;;;;;;17.89;100.00;102053.31;5013817;28;20278;-73
2023/06/02 10:10:10;;;;;;;5.93;1.90;;;;;;;17.86;100.00;101953.91;4986244;28;20203;-73
2023/06/02 10:12:56;;;;;;;4.13;1.90;;;;;;;18.22;100.00;101884.16;5004377;28;20188;-75
2023/06/02 10:15:22;;;;;;;4.63;2.00;;;;;;;19.11;100.00;101838.63;5007420;28;20191;-74
2023/06/02 10:18:16;;;;;;;5.83;2.00;;;;;;;19.43;99.15;101777.16;5013797;28;20228;-73
2023/06/02 10:20:41;;;;;;;3.90;1.70;;;;;;;19.62;100.00;101781.44;5028474;28;20801;-74
2023/06/02 10:23:27;;;;;;;2.77;1.70;;;;;;;19.62;98.58;101781.44;5007653;28;20195;-75
2023/06/02 10:26:11;;;;;;;2.53;1.47;;;;;;;19.76;91.53;101759.72;5003393;28;20187;-75
2023/06/02 10:28:37;;;;;;;1.97;1.30;;;;;;;20.05;95.34;101804.72;5009937;28;20183;-76
2023/06/02 10:31:08;;;;;;;4.13;1.77;;;;;;;20.02;87.44;101763.09;4984849;28;20712;-75
2023/06/02 10:33:49;;;;;;;5.13;1.87;;;;;;;19.93;94.34;101814.25;4996295;28;20287;-76
2023/06/02 10:36:17;;;;;;;4.07;1.67;;;;;;;19.47;88.58;101791.84;5008770;28;20260;-73
2023/06/02 10:38:45;;;;;;;4.67;1.93;;;;;;;19.35;87.84;101807.47;4995399;28;20190;-73
2023/06/02 10:41:12;;;;;;;4.27;1.57;;;;;;;18.89;89.33;101816.09;5012109;28;20214;-73
2023/06/02 10:43:38;;;;;;;4.47;1.70;;;;;;;18.97;92.11;101848.13;5005952;28;20195;-73
2023/06/02 10:46:17;;;;;;;5.30;1.90;;;;;;;18.79;92.78;101864.50;5004617;28;20210;-73
2023/06/02 10:48:42;;;;;;;5.17;2.00;;;;;;;18.84;93.80;101870.56;5017487;28;20210;-74
2023/06/02 10:51:10;;;;;;;6.27;1.83;;;;;;;18.86;93.87;101876.66;5011475;28;20305;-74
2023/06/02 10:54:04;;;;;;;4.20;2.03;;;;;;;19.70;87.04;101816.94;5025751;28;20213;-73
2023/06/02 10:56:35;;;;;;;4.80;1.80;;;;;;;19.72;83.52;101801.34;5005046;28;20223;-73
2023/06/02 10:59:02;;;;;;;3.80;1.57;;;;;;;19.80;81.09;101797.00;5003536;28;20213;-74
2023/06/02 11:01:44;;;;;;;4.53;1.40;;;;;;;19.55;75.50;101769.31;4999103;28;20214;-73
2023/06/02 11:04:35;;;;;;;5.10;1.60;;;;;;;20.15;69.00;101746.59;4997960;28;20195;-73
2023/06/02 11:07:26;;;;;;;2.90;1.40;;;;;;;21.06;71.09;101776.34;5004479;28;20870;-74
2023/06/02 11:09:55;;;;;;;4.10;1.43;;;;;;;20.97;63.46;101749.53;4988906;28;20191;-74
2023/06/02 11:12:50;;;;;;;2.33;1.43;;;;;;;20.84;59.86;101760.88;5004011;28;20221;-75
2023/06/02 11:15:17;;;;;;;4.07;1.40;;;;;;;20.74;56.39;101774.84;5002490;28;20198;-74